sensor_id;sensor_type;location;lat;lon;timestamp;P1;durP1;ratioP1;P2;durP2;ratioP2
58238;SDS011;44037;55.638;37.356;2023-12-22T00:00:05;9.20;;;6.30;;
58238;SDS011;44037;55.638;37.356;2023-12-22T00:02:34;8.98;;;5.68;;
58238;SDS011;44037;55.638;37.356;2023-12-22T00:05:01;10.93;;;5.57;;
58238;SDS011;44037;55.638;37.356;2023-12-22T00:07:29;8.65;;;5.32;;
58238;SDS011;44037;55.638;37.356;2023-12-22T00:09:57;8.80;;;5.40;;
58238;SDS011;44037;55.638;37.356;2023-12-22T00:12:24;12.15;;;5.65;;
58238;SDS011;44037;55.638;37.356;2023-12-22T00:14:53;6.30;;;5.32;;
58238;SDS011;44037;55.638;37.356;2023-12-22T00:17:21;8.13;;;4.95;;
58238;SDS011;44037;55.638;37.356;2023-12-22T00:19:48;8.48;;;5.55;;
58238;SDS011;44037;55.638;37.356;2023-12-22T00:22:15;8.38;;;6.25;;
58238;SDS011;44037;55.638;37.356;2023-12-22T00:24:43;10.15;;;6.20;;
58238;SDS011;44037;55.638;37.356;2023-12-22T00:27:10;10.63;;;6.00;;
58238;SDS011;44037;55.638;37.356;2023-12-22T00:29:37;8.73;;;5.90;;
58238;SDS011;44037;55.638;37.356;2023-12-22T00:32:06;8.07;;;5.65;;
58238;SDS011;44037;55.638;37.356;2023-12-22T00:34:35;8.82;;;5.85;;
58238;SDS011;44037;55.638;37.356;2023-12-22T00:37:03;7.07;;;5.13;;
58238;SDS011;44037;55.638;37.356;2023-12-22T00:39:31;9.40;;;6.45;;
58238;SDS011;44037;55.638;37.356;2023-12-22T00:41:58;8.80;;;5.93;;
58238;SDS011;44037;55.638;37.356;2023-12-22T00:44:26;8.13;;;5.22;;
58238;SDS011;44037;55.638;37.356;2023-12-22T00:46:55;11.85;;;8.60;;
58238;SDS011;44037;55.638;37.356;2023-12-22T00:49:24;10.20;;;6.80;;
58238;SDS011;44037;55.638;37.356;2023-12-22T00:51:51;7.43;;;5.30;;
58238;SDS011;44037;55.638;37.356;2023-12-22T00:54:19;9.55;;;6.85;;
58238;SDS011;44037;55.638;37.356;2023-12-22T00:56:45;12.20;;;6.07;;
58238;SDS011;44037;55.638;37.356;2023-12-22T00:59:13;9.70;;;5.70;;
58238;SDS011;44037;55.638;37.356;2023-12-22T01:01:40;7.25;;;5.40;;
58238;SDS011;44037;55.638;37.356;2023-12-22T01:04:07;10.48;;;5.88;;
58238;SDS011;44037;55.638;37.356;2023-12-22T01:06:38;10.15;;;5.95;;
58238;SDS011;44037;55.638;37.356;2023-12-22T01:09:05;9.85;;;6.28;;
58238;SDS011;44037;55.638;37.356;2023-12-22T01:11:33;9.95;;;5.40;;
58238;SDS011;44037;55.638;37.356;2023-12-22T01:14:00;7.88;;;5.57;;
58238;SDS011;44037;55.638;37.356;2023-12-22T01:16:28;9.70;;;5.80;;
58238;SDS011;44037;55.638;37.356;2023-12-22T01:18:55;9.55;;;5.97;;
58238;SDS011;44037;55.638;37.356;2023-12-22T01:21:23;7.70;;;5.28;;
58238;SDS011;44037;55.638;37.356;2023-12-22T01:23:52;8.05;;;5.47;;
58238;SDS011;44037;55.638;37.356;2023-12-22T01:26:19;10.13;;;5.40;;
58238;SDS011;44037;55.638;37.356;2023-12-22T01:28:47;9.77;;;5.95;;
58238;SDS011;44037;55.638;37.356;2023-12-22T01:31:14;9.75;;;6.43;;
58238;SDS011;44037;55.638;37.356;2023-12-22T01:33:41;10.45;;;5.45;;
58238;SDS011;44037;55.638;37.356;2023-12-22T01:36:09;8.13;;;6.10;;
58238;SDS011;44037;55.638;37.356;2023-12-22T01:38:36;8.55;;;5.65;;
58238;SDS011;44037;55.638;37.356;2023-12-22T01:41:05;9.68;;;6.82;;
58238;SDS011;44037;55.638;37.356;2023-12-22T01:43:34;8.07;;;6.28;;
58238;SDS011;44037;55.638;37.356;2023-12-22T01:46:01;9.07;;;6.85;;
58238;SDS011;44037;55.638;37.356;2023-12-22T01:48:30;11.13;;;6.45;;
58238;SDS011;44037;55.638;37.356;2023-12-22T01:50:58;10.85;;;7.25;;
58238;SDS011;44037;55.638;37.356;2023-12-22T01:53:28;12.60;;;6.78;;
58238;SDS011;44037;55.638;37.356;2023-12-22T01:55:57;8.95;;;5.93;;
58238;SDS011;44037;55.638;37.356;2023-12-22T01:58:28;10.13;;;6.88;;
58238;SDS011;44037;55.638;37.356;2023-12-22T02:00:57;11.95;;;6.35;;
58238;SDS011;44037;55.638;37.356;2023-12-22T02:03:24;8.93;;;6.35;;
58238;SDS011;44037;55.638;37.356;2023-12-22T02:05:52;10.32;;;5.85;;
58238;SDS011;44037;55.638;37.356;2023-12-22T02:08:20;12.70;;;6.78;;
58238;SDS011;44037;55.638;37.356;2023-12-22T02:10:49;11.73;;;7.68;;
58238;SDS011;44037;55.638;37.356;2023-12-22T02:13:17;9.90;;;6.55;;
58238;SDS011;44037;55.638;37.356;2023-12-22T02:15:46;10.65;;;7.05;;
58238;SDS011;44037;55.638;37.356;2023-12-22T02:18:16;13.48;;;8.00;;
58238;SDS011;44037;55.638;37.356;2023-12-22T02:20:48;11.25;;;7.47;;
58238;SDS011;44037;55.638;37.356;2023-12-22T02:23:17;10.68;;;7.90;;
58238;SDS011;44037;55.638;37.356;2023-12-22T02:25:45;9.90;;;6.90;;
58238;SDS011;44037;55.638;37.356;2023-12-22T02:28:13;9.23;;;7.00;;
58238;SDS011;44037;55.638;37.356;2023-12-22T02:30:47;10.88;;;7.32;;
58238;SDS011;44037;55.638;37.356;2023-12-22T02:33:19;10.45;;;7.32;;
58238;SDS011;44037;55.638;37.356;2023-12-22T02:35:50;11.80;;;8.38;;
58238;SDS011;44037;55.638;37.356;2023-12-22T02:38:20;12.45;;;7.00;;
58238;SDS011;44037;55.638;37.356;2023-12-22T02:40:48;14.57;;;6.63;;
58238;SDS011;44037;55.638;37.356;2023-12-22T02:43:16;11.38;;;7.53;;
58238;SDS011;44037;55.638;37.356;2023-12-22T02:45:44;9.63;;;7.38;;
58238;SDS011;44037;55.638;37.356;2023-12-22T02:48:11;13.23;;;7.88;;
58238;SDS011;44037;55.638;37.356;2023-12-22T02:50:38;14.50;;;6.93;;
58238;SDS011;44037;55.638;37.356;2023-12-22T02:53:06;12.07;;;7.80;;
58238;SDS011;44037;55.638;37.356;2023-12-22T02:55:35;10.50;;;7.45;;
58238;SDS011;44037;55.638;37.356;2023-12-22T02:58:02;14.35;;;8.48;;
58238;SDS011;44037;55.638;37.356;2023-12-22T03:00:30;12.23;;;7.78;;
58238;SDS011;44037;55.638;37.356;2023-12-22T03:02:58;13.05;;;7.63;;
58238;SDS011;44037;55.638;37.356;2023-12-22T03:05:25;12.63;;;7.60;;
58238;SDS011;44037;55.638;37.356;2023-12-22T03:15:37;9.60;;;6.55;;
58238;SDS011;44037;55.638;37.356;2023-12-22T03:18:05;15.10;;;7.45;;
58238;SDS011;44037;55.638;37.356;2023-12-22T03:20:32;12.27;;;8.15;;
58238;SDS011;44037;55.638;37.356;2023-12-22T03:22:59;10.52;;;7.47;;
58238;SDS011;44037;55.638;37.356;2023-12-22T03:25:27;13.75;;;7.53;;
58238;SDS011;44037;55.638;37.356;2023-12-22T03:27:54;12.25;;;9.20;;
58238;SDS011;44037;55.638;37.356;2023-12-22T03:30:21;12.32;;;7.65;;
58238;SDS011;44037;55.638;37.356;2023-12-22T03:32:50;13.23;;;7.65;;
58238;SDS011;44037;55.638;37.356;2023-12-22T03:35:17;13.38;;;8.27;;
58238;SDS011;44037;55.638;37.356;2023-12-22T03:37:45;12.02;;;7.88;;
58238;SDS011;44037;55.638;37.356;2023-12-22T03:40:12;14.13;;;9.57;;
58238;SDS011;44037;55.638;37.356;2023-12-22T03:42:40;11.93;;;7.60;;
58238;SDS011;44037;55.638;37.356;2023-12-22T03:45:07;11.60;;;7.68;;
58238;SDS011;44037;55.638;37.356;2023-12-22T03:47:35;11.07;;;7.05;;
58238;SDS011;44037;55.638;37.356;2023-12-22T03:50:04;14.00;;;9.45;;
58238;SDS011;44037;55.638;37.356;2023-12-22T03:52:32;13.32;;;7.15;;
58238;SDS011;44037;55.638;37.356;2023-12-22T03:55:00;17.17;;;8.13;;
58238;SDS011;44037;55.638;37.356;2023-12-22T03:57:27;12.68;;;8.85;;
58238;SDS011;44037;55.638;37.356;2023-12-22T03:59:55;14.32;;;8.38;;
58238;SDS011;44037;55.638;37.356;2023-12-22T04:02:22;16.77;;;10.23;;
58238;SDS011;44037;55.638;37.356;2023-12-22T04:04:49;13.35;;;9.52;;
58238;SDS011;44037;55.638;37.356;2023-12-22T04:07:18;13.85;;;9.15;;
58238;SDS011;44037;55.638;37.356;2023-12-22T04:09:46;12.52;;;8.80;;
58238;SDS011;44037;55.638;37.356;2023-12-22T04:12:13;13.73;;;9.05;;
58238;SDS011;44037;55.638;37.356;2023-12-22T04:14:40;13.60;;;8.98;;
58238;SDS011;44037;55.638;37.356;2023-12-22T04:17:08;17.58;;;10.93;;
58238;SDS011;44037;55.638;37.356;2023-12-22T04:19:35;14.65;;;10.13;;
58238;SDS011;44037;55.638;37.356;2023-12-22T04:22:03;12.80;;;9.00;;
58238;SDS011;44037;55.638;37.356;2023-12-22T04:24:32;12.20;;;9.02;;
58238;SDS011;44037;55.638;37.356;2023-12-22T04:26:59;15.05;;;9.90;;
58238;SDS011;44037;55.638;37.356;2023-12-22T04:29:26;13.50;;;9.95;;
58238;SDS011;44037;55.638;37.356;2023-12-22T04:32:00;12.63;;;9.23;;
58238;SDS011;44037;55.638;37.356;2023-12-22T04:34:28;12.65;;;8.27;;
58238;SDS011;44037;55.638;37.356;2023-12-22T04:36:55;11.85;;;8.68;;
58238;SDS011;44037;55.638;37.356;2023-12-22T04:39:22;13.38;;;8.52;;
58238;SDS011;44037;55.638;37.356;2023-12-22T04:41:51;14.23;;;9.43;;
58238;SDS011;44037;55.638;37.356;2023-12-22T04:44:18;12.98;;;8.55;;
58238;SDS011;44037;55.638;37.356;2023-12-22T04:46:46;15.15;;;9.57;;
58238;SDS011;44037;55.638;37.356;2023-12-22T04:49:13;12.73;;;8.65;;
58238;SDS011;44037;55.638;37.356;2023-12-22T04:51:41;14.27;;;10.23;;
58238;SDS011;44037;55.638;37.356;2023-12-22T04:54:08;14.90;;;10.18;;
58238;SDS011;44037;55.638;37.356;2023-12-22T04:56:35;13.98;;;9.52;;
58238;SDS011;44037;55.638;37.356;2023-12-22T04:59:04;18.33;;;11.13;;
58238;SDS011;44037;55.638;37.356;2023-12-22T05:01:32;12.77;;;9.82;;
58238;SDS011;44037;55.638;37.356;2023-12-22T05:03:59;17.08;;;10.32;;
58238;SDS011;44037;55.638;37.356;2023-12-22T05:06:27;14.35;;;9.52;;
58238;SDS011;44037;55.638;37.356;2023-12-22T05:08:55;13.65;;;10.75;;
58238;SDS011;44037;55.638;37.356;2023-12-22T05:11:23;15.10;;;11.30;;
58238;SDS011;44037;55.638;37.356;2023-12-22T05:13:50;18.58;;;12.05;;
58238;SDS011;44037;55.638;37.356;2023-12-22T05:16:19;15.35;;;10.50;;
58238;SDS011;44037;55.638;37.356;2023-12-22T05:18:46;16.08;;;10.50;;
58238;SDS011;44037;55.638;37.356;2023-12-22T05:21:14;13.70;;;10.60;;
58238;SDS011;44037;55.638;37.356;2023-12-22T05:23:41;12.77;;;10.00;;
58238;SDS011;44037;55.638;37.356;2023-12-22T05:26:08;15.70;;;9.77;;
58238;SDS011;44037;55.638;37.356;2023-12-22T05:28:36;14.50;;;8.90;;
58238;SDS011;44037;55.638;37.356;2023-12-22T05:31:03;14.02;;;10.88;;
58238;SDS011;44037;55.638;37.356;2023-12-22T05:33:35;11.68;;;9.00;;
58238;SDS011;44037;55.638;37.356;2023-12-22T05:36:02;14.65;;;11.55;;
58238;SDS011;44037;55.638;37.356;2023-12-22T05:38:30;13.95;;;10.75;;
58238;SDS011;44037;55.638;37.356;2023-12-22T05:40:58;17.92;;;11.13;;
58238;SDS011;44037;55.638;37.356;2023-12-22T05:43:25;13.52;;;10.45;;
58238;SDS011;44037;55.638;37.356;2023-12-22T05:45:52;16.77;;;11.63;;
58238;SDS011;44037;55.638;37.356;2023-12-22T05:48:20;19.20;;;12.27;;
58238;SDS011;44037;55.638;37.356;2023-12-22T05:50:49;17.88;;;10.70;;
58238;SDS011;44037;55.638;37.356;2023-12-22T05:53:16;16.83;;;11.73;;
58238;SDS011;44037;55.638;37.356;2023-12-22T05:55:49;19.45;;;13.40;;
58238;SDS011;44037;55.638;37.356;2023-12-22T05:58:17;19.55;;;12.88;;
58238;SDS011;44037;55.638;37.356;2023-12-22T06:00:44;19.83;;;12.82;;
58238;SDS011;44037;55.638;37.356;2023-12-22T06:03:11;18.08;;;12.38;;
58238;SDS011;44037;55.638;37.356;2023-12-22T06:05:39;19.75;;;12.38;;
58238;SDS011;44037;55.638;37.356;2023-12-22T06:08:08;19.45;;;13.15;;
58238;SDS011;44037;55.638;37.356;2023-12-22T06:10:36;21.30;;;13.43;;
58238;SDS011;44037;55.638;37.356;2023-12-22T06:13:03;17.95;;;13.90;;
58238;SDS011;44037;55.638;37.356;2023-12-22T06:15:32;22.80;;;13.88;;
58238;SDS011;44037;55.638;37.356;2023-12-22T06:17:59;19.80;;;13.13;;
58238;SDS011;44037;55.638;37.356;2023-12-22T06:20:26;23.05;;;13.90;;
58238;SDS011;44037;55.638;37.356;2023-12-22T06:22:54;22.80;;;14.55;;
58238;SDS011;44037;55.638;37.356;2023-12-22T06:25:23;25.08;;;15.90;;
58238;SDS011;44037;55.638;37.356;2023-12-22T06:27:50;25.73;;;14.77;;
58238;SDS011;44037;55.638;37.356;2023-12-22T06:30:17;23.20;;;14.50;;
58238;SDS011;44037;55.638;37.356;2023-12-22T06:32:49;21.58;;;14.25;;
58238;SDS011;44037;55.638;37.356;2023-12-22T06:35:20;21.65;;;15.02;;
58238;SDS011;44037;55.638;37.356;2023-12-22T06:40:48;22.42;;;14.57;;
58238;SDS011;44037;55.638;37.356;2023-12-22T06:43:16;22.50;;;14.43;;
58238;SDS011;44037;55.638;37.356;2023-12-22T06:45:43;24.83;;;17.55;;
58238;SDS011;44037;55.638;37.356;2023-12-22T06:48:11;20.48;;;15.30;;
58238;SDS011;44037;55.638;37.356;2023-12-22T06:50:38;24.00;;;15.85;;
58238;SDS011;44037;55.638;37.356;2023-12-22T06:53:06;25.02;;;18.17;;
58238;SDS011;44037;55.638;37.356;2023-12-22T06:55:34;24.65;;;16.60;;
58238;SDS011;44037;55.638;37.356;2023-12-22T06:58:02;23.67;;;16.60;;
58238;SDS011;44037;55.638;37.356;2023-12-22T07:00:30;25.80;;;15.52;;
58238;SDS011;44037;55.638;37.356;2023-12-22T07:02:57;25.27;;;17.35;;
58238;SDS011;44037;55.638;37.356;2023-12-22T07:05:34;24.38;;;16.55;;
58238;SDS011;44037;55.638;37.356;2023-12-22T07:08:04;24.67;;;16.63;;
58238;SDS011;44037;55.638;37.356;2023-12-22T07:10:32;22.75;;;14.95;;
58238;SDS011;44037;55.638;37.356;2023-12-22T07:13:00;19.20;;;14.65;;
58238;SDS011;44037;55.638;37.356;2023-12-22T07:15:28;22.63;;;16.63;;
58238;SDS011;44037;55.638;37.356;2023-12-22T07:17:56;20.52;;;15.45;;
58238;SDS011;44037;55.638;37.356;2023-12-22T07:20:23;27.95;;;17.02;;
58238;SDS011;44037;55.638;37.356;2023-12-22T07:22:51;20.88;;;15.57;;
58238;SDS011;44037;55.638;37.356;2023-12-22T07:25:19;20.48;;;15.55;;
58238;SDS011;44037;55.638;37.356;2023-12-22T07:27:47;20.27;;;15.13;;
58238;SDS011;44037;55.638;37.356;2023-12-22T07:30:15;20.02;;;15.45;;
58238;SDS011;44037;55.638;37.356;2023-12-22T07:32:45;20.73;;;15.55;;
58238;SDS011;44037;55.638;37.356;2023-12-22T07:35:17;19.67;;;15.10;;
58238;SDS011;44037;55.638;37.356;2023-12-22T07:37:44;20.02;;;13.65;;
58238;SDS011;44037;55.638;37.356;2023-12-22T07:40:12;18.95;;;13.43;;
58238;SDS011;44037;55.638;37.356;2023-12-22T07:42:39;20.45;;;14.73;;
58238;SDS011;44037;55.638;37.356;2023-12-22T07:45:07;21.33;;;14.05;;
58238;SDS011;44037;55.638;37.356;2023-12-22T07:47:35;19.65;;;13.75;;
58238;SDS011;44037;55.638;37.356;2023-12-22T07:50:04;18.92;;;14.80;;
58238;SDS011;44037;55.638;37.356;2023-12-22T07:52:34;19.50;;;13.52;;
58238;SDS011;44037;55.638;37.356;2023-12-22T07:55:04;22.65;;;13.88;;
58238;SDS011;44037;55.638;37.356;2023-12-22T07:57:33;19.52;;;15.10;;
58238;SDS011;44037;55.638;37.356;2023-12-22T08:00:01;18.88;;;14.38;;
58238;SDS011;44037;55.638;37.356;2023-12-22T08:02:30;20.65;;;14.88;;
58238;SDS011;44037;55.638;37.356;2023-12-22T08:04:57;20.35;;;15.55;;
58238;SDS011;44037;55.638;37.356;2023-12-22T08:07:26;20.92;;;14.27;;
58238;SDS011;44037;55.638;37.356;2023-12-22T08:09:54;17.80;;;14.15;;
58238;SDS011;44037;55.638;37.356;2023-12-22T08:12:21;17.98;;;14.25;;
58238;SDS011;44037;55.638;37.356;2023-12-22T08:14:48;17.67;;;13.65;;
58238;SDS011;44037;55.638;37.356;2023-12-22T08:17:15;18.40;;;12.63;;
58238;SDS011;44037;55.638;37.356;2023-12-22T08:19:43;18.83;;;13.27;;
58238;SDS011;44037;55.638;37.356;2023-12-22T08:22:10;16.00;;;12.05;;
58238;SDS011;44037;55.638;37.356;2023-12-22T08:24:40;12.75;;;10.30;;
58238;SDS011;44037;55.638;37.356;2023-12-22T08:27:08;16.70;;;10.65;;
58238;SDS011;44037;55.638;37.356;2023-12-22T08:29:35;17.92;;;11.38;;
58238;SDS011;44037;55.638;37.356;2023-12-22T08:32:06;17.25;;;10.75;;
58238;SDS011;44037;55.638;37.356;2023-12-22T08:34:33;13.95;;;11.25;;
58238;SDS011;44037;55.638;37.356;2023-12-22T08:37:01;13.63;;;10.43;;
58238;SDS011;44037;55.638;37.356;2023-12-22T08:39:28;19.92;;;12.48;;
58238;SDS011;44037;55.638;37.356;2023-12-22T08:41:58;14.75;;;11.15;;
58238;SDS011;44037;55.638;37.356;2023-12-22T08:44:25;14.00;;;10.32;;
58238;SDS011;44037;55.638;37.356;2023-12-22T08:46:53;13.13;;;9.82;;
58238;SDS011;44037;55.638;37.356;2023-12-22T08:49:20;14.73;;;10.27;;
58238;SDS011;44037;55.638;37.356;2023-12-22T08:51:48;13.02;;;9.27;;
58238;SDS011;44037;55.638;37.356;2023-12-22T08:54:15;13.43;;;9.80;;
58238;SDS011;44037;55.638;37.356;2023-12-22T08:56:42;14.85;;;9.82;;
58238;SDS011;44037;55.638;37.356;2023-12-22T08:59:11;13.40;;;9.65;;
58238;SDS011;44037;55.638;37.356;2023-12-22T09:01:38;15.27;;;9.63;;
58238;SDS011;44037;55.638;37.356;2023-12-22T09:04:06;13.90;;;9.63;;
58238;SDS011;44037;55.638;37.356;2023-12-22T09:06:33;14.73;;;11.35;;
58238;SDS011;44037;55.638;37.356;2023-12-22T09:09:01;15.48;;;10.85;;
58238;SDS011;44037;55.638;37.356;2023-12-22T09:11:29;18.20;;;11.38;;
58238;SDS011;44037;55.638;37.356;2023-12-22T09:13:57;16.27;;;10.75;;
58238;SDS011;44037;55.638;37.356;2023-12-22T09:16:26;17.38;;;11.35;;
58238;SDS011;44037;55.638;37.356;2023-12-22T09:18:53;19.73;;;10.93;;
58238;SDS011;44037;55.638;37.356;2023-12-22T09:21:20;17.13;;;9.80;;
58238;SDS011;44037;55.638;37.356;2023-12-22T09:23:48;16.40;;;10.25;;
58238;SDS011;44037;55.638;37.356;2023-12-22T09:26:16;16.98;;;10.77;;
58238;SDS011;44037;55.638;37.356;2023-12-22T09:28:43;28.02;;;11.07;;
58238;SDS011;44037;55.638;37.356;2023-12-22T09:31:11;19.65;;;10.80;;
58238;SDS011;44037;55.638;37.356;2023-12-22T09:33:41;18.38;;;10.55;;
58238;SDS011;44037;55.638;37.356;2023-12-22T09:36:08;14.48;;;10.02;;
58238;SDS011;44037;55.638;37.356;2023-12-22T09:38:37;15.90;;;9.70;;
58238;SDS011;44037;55.638;37.356;2023-12-22T09:41:04;14.65;;;9.52;;
58238;SDS011;44037;55.638;37.356;2023-12-22T09:43:32;14.07;;;9.32;;
58238;SDS011;44037;55.638;37.356;2023-12-22T09:46:02;16.67;;;9.93;;
58238;SDS011;44037;55.638;37.356;2023-12-22T09:48:31;17.08;;;9.40;;
58238;SDS011;44037;55.638;37.356;2023-12-22T09:51:03;14.90;;;10.07;;
58238;SDS011;44037;55.638;37.356;2023-12-22T09:53:32;17.08;;;9.63;;
58238;SDS011;44037;55.638;37.356;2023-12-22T09:56:02;19.95;;;10.05;;
58238;SDS011;44037;55.638;37.356;2023-12-22T09:58:30;16.45;;;10.27;;
58238;SDS011;44037;55.638;37.356;2023-12-22T10:01:01;16.63;;;9.73;;
58238;SDS011;44037;55.638;37.356;2023-12-22T10:03:30;18.63;;;10.63;;
58238;SDS011;44037;55.638;37.356;2023-12-22T10:06:00;15.13;;;10.18;;
58238;SDS011;44037;55.638;37.356;2023-12-22T10:08:30;17.48;;;10.93;;
58238;SDS011;44037;55.638;37.356;2023-12-22T10:10:58;19.42;;;11.80;;
58238;SDS011;44037;55.638;37.356;2023-12-22T10:13:26;18.75;;;10.15;;
58238;SDS011;44037;55.638;37.356;2023-12-22T10:15:54;16.65;;;10.13;;
58238;SDS011;44037;55.638;37.356;2023-12-22T10:18:22;20.67;;;11.43;;
58238;SDS011;44037;55.638;37.356;2023-12-22T10:20:50;16.67;;;11.00;;
58238;SDS011;44037;55.638;37.356;2023-12-22T10:23:19;17.52;;;12.38;;
58238;SDS011;44037;55.638;37.356;2023-12-22T10:25:46;17.52;;;11.30;;
58238;SDS011;44037;55.638;37.356;2023-12-22T10:28:14;16.40;;;11.50;;
58238;SDS011;44037;55.638;37.356;2023-12-22T10:30:42;17.92;;;11.35;;
58238;SDS011;44037;55.638;37.356;2023-12-22T10:33:11;15.98;;;10.40;;
58238;SDS011;44037;55.638;37.356;2023-12-22T10:35:40;16.88;;;10.68;;
58238;SDS011;44037;55.638;37.356;2023-12-22T10:38:08;16.27;;;10.82;;
58238;SDS011;44037;55.638;37.356;2023-12-22T10:40:38;15.68;;;10.50;;
58238;SDS011;44037;55.638;37.356;2023-12-22T10:43:05;24.70;;;12.75;;
58238;SDS011;44037;55.638;37.356;2023-12-22T10:45:33;17.33;;;11.13;;
58238;SDS011;44037;55.638;37.356;2023-12-22T10:48:00;15.50;;;10.70;;
58238;SDS011;44037;55.638;37.356;2023-12-22T10:50:27;16.45;;;12.02;;
58238;SDS011;44037;55.638;37.356;2023-12-22T10:52:55;16.88;;;10.48;;
58238;SDS011;44037;55.638;37.356;2023-12-22T10:55:22;19.23;;;10.48;;
58238;SDS011;44037;55.638;37.356;2023-12-22T10:57:51;17.73;;;11.43;;
58238;SDS011;44037;55.638;37.356;2023-12-22T11:00:20;18.13;;;12.52;;
58238;SDS011;44037;55.638;37.356;2023-12-22T11:02:47;20.25;;;12.30;;
58238;SDS011;44037;55.638;37.356;2023-12-22T11:05:16;16.48;;;12.02;;
58238;SDS011;44037;55.638;37.356;2023-12-22T11:07:46;20.30;;;12.77;;
58238;SDS011;44037;55.638;37.356;2023-12-22T11:10:16;23.10;;;13.05;;
58238;SDS011;44037;55.638;37.356;2023-12-22T11:12:47;20.73;;;13.27;;
58238;SDS011;44037;55.638;37.356;2023-12-22T11:15:16;16.48;;;11.45;;
58238;SDS011;44037;55.638;37.356;2023-12-22T11:17:44;16.13;;;12.27;;
58238;SDS011;44037;55.638;37.356;2023-12-22T11:20:15;19.40;;;13.43;;
58238;SDS011;44037;55.638;37.356;2023-12-22T11:22:43;18.60;;;12.70;;
58238;SDS011;44037;55.638;37.356;2023-12-22T11:25:11;19.17;;;12.10;;
58238;SDS011;44037;55.638;37.356;2023-12-22T11:27:41;23.08;;;13.40;;
58238;SDS011;44037;55.638;37.356;2023-12-22T11:30:10;25.33;;;13.55;;
58238;SDS011;44037;55.638;37.356;2023-12-22T11:32:40;18.85;;;12.02;;
58238;SDS011;44037;55.638;37.356;2023-12-22T11:35:08;21.63;;;12.55;;
58238;SDS011;44037;55.638;37.356;2023-12-22T11:37:36;21.23;;;14.05;;
58238;SDS011;44037;55.638;37.356;2023-12-22T11:40:06;24.17;;;13.27;;
58238;SDS011;44037;55.638;37.356;2023-12-22T11:42:35;19.40;;;10.73;;
58238;SDS011;44037;55.638;37.356;2023-12-22T11:45:09;20.80;;;14.07;;
58238;SDS011;44037;55.638;37.356;2023-12-22T11:47:38;18.85;;;11.85;;
58238;SDS011;44037;55.638;37.356;2023-12-22T11:50:09;19.42;;;12.77;;
58238;SDS011;44037;55.638;37.356;2023-12-22T11:52:37;17.23;;;12.25;;
58238;SDS011;44037;55.638;37.356;2023-12-22T11:55:06;19.40;;;11.77;;
58238;SDS011;44037;55.638;37.356;2023-12-22T11:57:34;20.35;;;12.77;;
58238;SDS011;44037;55.638;37.356;2023-12-22T12:00:08;18.50;;;12.50;;
58238;SDS011;44037;55.638;37.356;2023-12-22T12:02:38;23.63;;;12.52;;
58238;SDS011;44037;55.638;37.356;2023-12-22T12:05:07;19.00;;;13.85;;
58238;SDS011;44037;55.638;37.356;2023-12-22T12:07:40;22.50;;;14.13;;
58238;SDS011;44037;55.638;37.356;2023-12-22T12:10:10;20.00;;;11.73;;
58238;SDS011;44037;55.638;37.356;2023-12-22T12:12:39;19.67;;;11.50;;
58238;SDS011;44037;55.638;37.356;2023-12-22T12:15:10;16.60;;;11.85;;
58238;SDS011;44037;55.638;37.356;2023-12-22T12:17:43;18.15;;;12.50;;
58238;SDS011;44037;55.638;37.356;2023-12-22T12:20:12;18.60;;;12.65;;
58238;SDS011;44037;55.638;37.356;2023-12-22T12:22:39;20.58;;;13.85;;
58238;SDS011;44037;55.638;37.356;2023-12-22T12:25:10;17.45;;;11.98;;
58238;SDS011;44037;55.638;37.356;2023-12-22T12:27:37;17.08;;;10.95;;
58238;SDS011;44037;55.638;37.356;2023-12-22T12:30:06;16.73;;;10.60;;
58238;SDS011;44037;55.638;37.356;2023-12-22T12:32:39;16.95;;;12.20;;
58238;SDS011;44037;55.638;37.356;2023-12-22T12:35:11;16.13;;;12.13;;
58238;SDS011;44037;55.638;37.356;2023-12-22T12:37:40;19.15;;;12.10;;
58238;SDS011;44037;55.638;37.356;2023-12-22T12:40:07;18.25;;;11.85;;
58238;SDS011;44037;55.638;37.356;2023-12-22T12:42:37;15.77;;;10.73;;
58238;SDS011;44037;55.638;37.356;2023-12-22T12:45:05;13.60;;;10.35;;
58238;SDS011;44037;55.638;37.356;2023-12-22T12:47:34;16.50;;;10.63;;
58238;SDS011;44037;55.638;37.356;2023-12-22T12:50:01;18.20;;;11.95;;
58238;SDS011;44037;55.638;37.356;2023-12-22T12:52:32;15.40;;;10.57;;
58238;SDS011;44037;55.638;37.356;2023-12-22T12:55:01;15.73;;;10.48;;
58238;SDS011;44037;55.638;37.356;2023-12-22T12:57:30;17.67;;;11.20;;
58238;SDS011;44037;55.638;37.356;2023-12-22T12:59:57;16.27;;;11.68;;
58238;SDS011;44037;55.638;37.356;2023-12-22T13:02:24;16.05;;;10.80;;
58238;SDS011;44037;55.638;37.356;2023-12-22T13:04:53;17.70;;;10.52;;
58238;SDS011;44037;55.638;37.356;2023-12-22T13:07:23;15.30;;;10.98;;
58238;SDS011;44037;55.638;37.356;2023-12-22T13:09:53;16.75;;;10.27;;
58238;SDS011;44037;55.638;37.356;2023-12-22T13:12:22;15.45;;;9.70;;
58238;SDS011;44037;55.638;37.356;2023-12-22T13:14:50;17.30;;;10.18;;
58238;SDS011;44037;55.638;37.356;2023-12-22T13:17:18;15.65;;;10.68;;
58238;SDS011;44037;55.638;37.356;2023-12-22T13:19:45;16.42;;;11.57;;
58238;SDS011;44037;55.638;37.356;2023-12-22T13:22:13;16.50;;;11.43;;
58238;SDS011;44037;55.638;37.356;2023-12-22T13:24:40;15.75;;;10.70;;
58238;SDS011;44037;55.638;37.356;2023-12-22T13:27:09;17.15;;;10.85;;
58238;SDS011;44037;55.638;37.356;2023-12-22T13:29:42;15.43;;;10.57;;
58238;SDS011;44037;55.638;37.356;2023-12-22T13:32:17;17.15;;;11.63;;
58238;SDS011;44037;55.638;37.356;2023-12-22T13:34:48;15.85;;;11.57;;
58238;SDS011;44037;55.638;37.356;2023-12-22T13:37:17;16.85;;;12.50;;
58238;SDS011;44037;55.638;37.356;2023-12-22T13:39:45;17.60;;;11.23;;
58238;SDS011;44037;55.638;37.356;2023-12-22T13:42:17;17.63;;;12.15;;
58238;SDS011;44037;55.638;37.356;2023-12-22T13:44:47;19.17;;;11.40;;
58238;SDS011;44037;55.638;37.356;2023-12-22T13:47:16;16.80;;;10.80;;
58238;SDS011;44037;55.638;37.356;2023-12-22T13:49:43;20.27;;;12.63;;
58238;SDS011;44037;55.638;37.356;2023-12-22T13:52:24;19.67;;;14.05;;
58238;SDS011;44037;55.638;37.356;2023-12-22T13:54:52;20.33;;;13.15;;
58238;SDS011;44037;55.638;37.356;2023-12-22T13:57:23;21.27;;;13.82;;
58238;SDS011;44037;55.638;37.356;2023-12-22T13:59:51;18.98;;;12.75;;
58238;SDS011;44037;55.638;37.356;2023-12-22T14:02:21;18.65;;;12.80;;
58238;SDS011;44037;55.638;37.356;2023-12-22T14:04:49;21.88;;;15.27;;
58238;SDS011;44037;55.638;37.356;2023-12-22T14:07:16;21.00;;;13.65;;
58238;SDS011;44037;55.638;37.356;2023-12-22T14:09:44;20.75;;;14.60;;
58238;SDS011;44037;55.638;37.356;2023-12-22T14:12:11;21.33;;;13.80;;
58238;SDS011;44037;55.638;37.356;2023-12-22T14:14:40;18.83;;;13.32;;
58238;SDS011;44037;55.638;37.356;2023-12-22T14:17:07;21.15;;;13.43;;
58238;SDS011;44037;55.638;37.356;2023-12-22T14:19:34;21.80;;;13.70;;
58238;SDS011;44037;55.638;37.356;2023-12-22T14:22:02;25.73;;;15.30;;
58238;SDS011;44037;55.638;37.356;2023-12-22T14:24:30;18.13;;;12.40;;
58238;SDS011;44037;55.638;37.356;2023-12-22T14:26:57;17.77;;;12.98;;
58238;SDS011;44037;55.638;37.356;2023-12-22T14:29:24;18.35;;;12.38;;
58238;SDS011;44037;55.638;37.356;2023-12-22T14:31:53;18.88;;;13.55;;